Relevés horaires Beauvechain (Belgique)


Relevés horaires à Beauvechain - Lundi 03 Août 2020
Heure UTC1 Température [°C] Vent [km/h] Hum. [%] Pres.4 [hPa] Visi. [Km] Nébu. [octa] Préc.5 [mm] Cond.
2m. Res. Ros. Dir.2 Vit. Moy. Raf.3
23:00 14.8 14.8 11.9 NNO 1.9 -- 3.7 83 1016.5(1.6/3h) 20 -- -- --
22:00 14.6 14.6 11.4 NNO 1.9 -- 5.6 81 1015.8(1.7/3h) 20 -- -- --
21:00 15.6 15.6 11.7 N 3.7 -- 11.1 78 1015.2(1.4/3h) 20 -- -- --
20:00 16.0 16.0 11.1 N 5.6 -- 11.1 73 1014.7(1.2/3h) 20 -- -- --
19:00 16.5 16.5 10.2 NNO 3.7 -- 11.1 66 1014(0.8/3h) 20 -- -- --
18:00 17.2 17.2 10.2 NO 7.4 -- 18.5 63 1013.7(0.7/3h) 20 -- -- --
17:00 18.0 18.0 10.4 N 7.4 -- 14.8 61 1013.3(0.8/3h) 20 -- -- --
16:00 18.7 18.7 10.5 NNO 9.3 -- 16.7 59 1013.2(0.3/3h) 20 -- -- --
15:00 19.1 19.1 12.4 NNO 11.1 -- 18.5 65 1012.7(-0.2/3h) 20 7/8 -- --
14:00 21.4 21.4 8.8 NO 5.6 -- 7.4 44 1012.2(-1.0/3h) 20 5/8 -- --
13:00 20.7 20.7 9.4 ONO 3.7 -- 7.4 48 1012.7(-1.1/3h) 20 5/8 -- --
12:00 20.5 20.5 8.7 NO 3.7 -- 7.4 47 1013(-1.0/3h) 20 5/8 -- --
11:00 20.0 20.0 9.4 NNO 1.9 -- 7.4 50 1013.5(-0.8/3h) 20 5/8 -- --
10:00 19.5 19.5 10.0 NNO 1.9 -- 5.6 54 1013.8(-0.7/3h) 20 7/8 -- --
09:00 18.6 18.6 9.6 NNO 1.9 -- 5.6 56 1014.2(-0.3/3h) 20 7/8 -- --
08:00 17.5 17.5 11.6 NNO 1.9 -- 5.6 68 1014.3(-0.1/3h) 20 7/8 -- --
07:00 15.5 15.5 10.7 NNO 1.9 -- 3.7 73 1014.7(0.0/3h) 20 7/8 -- --
06:00 13.9 13.9 10.6 NNO 1.9 -- 3.7 80 1014.7(-0.2/3h) 20 7/8 -- --
05:00 12.6 12.6 9.7 NNO 1.9 -- 3.7 82 1014.7(-0.5/3h) 20 -- -- --
04:00 12.9 12.9 9.6 NNO 1.9 -- 1.9 80 1014.8(-0.9/3h) 20 -- -- --
03:00 12.8 12.8 9.7 NNO 1.9 -- 3.7 81 1015.1(-0.8/3h) 20 -- -- --
02:00 12.6 12.6 9.7 NNO 1.9 -- 3.7 82 1015.3(-0.8/3h) 20 -- -- --
01:00 13.5 13.5 9.3 NNO 1.9 -- 3.7 76 1015.7(-0.5/3h) 20 -- -- --
00:00 14.0 14.0 9.4 NNO 1.9 -- 11.1 74 1015.8(-0.4/3h) 20 -- -- --

1 Coordinated Universal Time. Actuellement il est 13:00 locale et 11:00 UTC.

2 Le vent souffle depuis la direction indiquée vers la direction oposée.

3 Les rafales max. sont disponible 40 min après l'heure du relevé.

4 Pour les stations d'altitude (plus de 600m) le géopotentiel du niveau le plus proche de la pression obligatoire est indiqué.

5 Les stations disposant d'un diffuseur peuvent indiquer "trace". Cela signifie que des précipitations ont touchés le sol mais que la quantité est inférieure à 0.1 mm.

Récapitulatif de la journée
Température [°C] Vent [km/h] Ensoleillement4 [h] Precipitations totale5 [mm] Pression [Hpa]
Min1 Max.2 Moy.3 Max. Min Max.
12.3 23.1 0 18.5 0 h 0 min 0 1012.2 1016.5

1 Température minimale relevée entre 18:00 UTC la veille et 18:00 UTC le jour donné.

2 Température maximale relevée entre 06:00 UTC le jour donné et 06:00 UTC le lendemain.

3 Vent moyen de la journée basé sur les relevés horaires.

4 Ensoleillement en heures relevé entre 06:00 UTC la veille et 06:00 UTC le jour donné.

5 Précipitations totales tombées entre 06:00 UTC la jour donné et 06:00 UTC le lendemain.

Graphiques horaires